Time;durP1;ratioP1;P1;durP2;ratioP2;P2;SDS_P1;SDS_P2;PMS_P1;PMS_P2;Temp;Humidity;BMP_temperature;BMP_pressure;BME280_temperature;BME280_humidity;BME280_pressure;Samples;Min_cycle;Max_cycle;Signal;HPM_P1;HPM_P2
2021/08/05 00:00:41;;;;;;;10.83;7.07;;;;;;;17.81;100.00;100438.63;1716771;81;21009;-62
2021/08/05 00:03:08;;;;;;;10.67;7.33;;;;;;;17.80;100.00;100435.69;1716606;81;20961;-62
2021/08/05 00:05:34;;;;;;;12.87;7.47;;;;;;;17.76;100.00;100432.69;1705249;82;21017;-62
2021/08/05 00:08:01;;;;;;;13.70;7.13;;;;;;;17.78;100.00;100434.61;1706705;82;21114;-62
2021/08/05 00:10:27;;;;;;;11.07;7.37;;;;;;;17.77;100.00;100436.13;1706996;83;20871;-62
2021/08/05 00:12:53;;;;;;;11.60;7.57;;;;;;;17.74;100.00;100431.59;1707744;82;20914;-62
2021/08/05 00:15:20;;;;;;;12.10;7.40;;;;;;;17.82;100.00;100433.13;1705928;83;21558;-62
2021/08/05 00:17:46;;;;;;;13.80;8.80;;;;;;;17.69;100.00;100424.88;1706356;82;21104;-62
2021/08/05 00:20:13;;;;;;;10.47;7.60;;;;;;;17.87;100.00;100428.48;1707399;82;21193;-63
2021/08/05 00:22:40;;;;;;;15.03;8.30;;;;;;;17.79;100.00;100427.49;1707101;83;21465;-63
2021/08/05 00:25:08;;;;;;;12.53;8.67;;;;;;;17.88;100.00;100431.40;1706983;82;21049;-64
2021/08/05 00:27:34;;;;;;;15.50;9.57;;;;;;;17.92;100.00;100431.27;1707379;82;21126;-62
2021/08/05 00:30:01;;;;;;;14.97;9.53;;;;;;;17.93;100.00;100431.54;1707332;82;20950;-63
2021/08/05 00:32:28;;;;;;;16.33;10.50;;;;;;;17.92;100.00;100432.06;1707443;82;21183;-63
2021/08/05 00:34:55;;;;;;;14.07;9.43;;;;;;;17.98;100.00;100434.29;1706616;82;20974;-62
2021/08/05 00:37:21;;;;;;;14.87;8.47;;;;;;;17.92;100.00;100431.27;1707533;82;21123;-63
2021/08/05 00:39:48;;;;;;;11.57;8.10;;;;;;;17.90;100.00;100435.42;1707441;82;20986;-61
2021/08/05 00:42:15;;;;;;;13.17;8.50;;;;;;;17.84;100.00;100438.16;1706647;83;20910;-63
2021/08/05 00:44:43;;;;;;;11.27;8.10;;;;;;;17.85;100.00;100438.47;1707092;83;20993;-63
2021/08/05 00:47:09;;;;;;;11.77;7.57;;;;;;;17.82;100.00;100441.55;1706835;82;21001;-62
2021/08/05 00:49:36;;;;;;;14.07;8.43;;;;;;;17.81;100.00;100437.31;1707532;82;21637;-63
2021/08/05 00:52:04;;;;;;;14.60;7.37;;;;;;;17.82;100.00;100436.28;1704998;83;21472;-63
2021/08/05 00:54:32;;;;;;;14.47;7.53;;;;;;;17.76;100.00;100439.28;1707226;82;21365;-63
2021/08/05 00:56:59;;;;;;;11.03;7.47;;;;;;;17.75;100.00;100437.17;1707590;82;21109;-64
2021/08/05 00:59:27;;;;;;;14.40;7.60;;;;;;;17.73;100.00;100433.94;1707103;82;21399;-63
2021/08/05 01:02:16;;;;;;;12.57;7.57;;;;;;;17.72;100.00;100438.91;1706460;83;21065;-62
2021/08/05 01:04:46;;;;;;;11.77;7.17;;;;;;;17.74;100.00;100438.17;1704992;82;20966;-63
2021/08/05 01:07:38;;;;;;;9.87;6.67;;;;;;;17.79;100.00;100432.77;1703786;83;20978;-63
2021/08/05 01:10:21;;;;;;;12.37;6.73;;;;;;;17.74;100.00;100436.05;1707119;83;21160;-63
2021/08/05 01:12:57;;;;;;;10.50;6.73;;;;;;;17.72;100.00;100438.91;1706685;82;20947;-63
2021/08/05 01:15:24;;;;;;;12.20;7.10;;;;;;;17.66;100.00;100442.97;1706596;82;21009;-62
2021/08/05 01:18:01;;;;;;;9.40;7.00;;;;;;;17.78;100.00;100444.35;1707058;82;21116;-63
2021/08/05 01:20:29;;;;;;;11.67;6.60;;;;;;;17.57;100.00;100440.34;1668663;84;35881;-63
2021/08/05 01:23:20;;;;;;;14.00;7.50;;;;;;;17.49;100.00;100438.83;1645548;85;22179;-63
2021/08/05 01:26:08;;;;;;;12.47;7.42;;;;;;;17.48;100.00;100439.35;1707681;82;21405;-61
2021/08/05 01:28:35;;;;;;;11.07;6.90;;;;;;;17.42;100.00;100437.59;1704843;83;20883;-62
2021/08/05 01:31:03;;;;;;;11.93;7.80;;;;;;;17.32;100.00;100436.55;1704675;83;20898;-63
2021/08/05 01:33:30;;;;;;;13.80;8.17;;;;;;;17.28;100.00;100431.44;1707456;83;20982;-63
2021/08/05 01:35:57;;;;;;;13.30;7.53;;;;;;;17.22;100.00;100433.91;1707159;82;21329;-62
2021/08/05 01:38:24;;;;;;;12.73;7.70;;;;;;;17.18;100.00;100434.07;1705759;83;21488;-63
2021/08/05 01:40:51;;;;;;;11.70;6.47;;;;;;;17.12;100.00;100432.83;1706820;82;21049;-63
2021/08/05 01:43:19;;;;;;;13.70;7.40;;;;;;;17.09;100.00;100427.52;1707455;82;21144;-63
2021/08/05 01:45:46;;;;;;;10.90;7.07;;;;;;;17.06;100.00;100431.90;1704239;82;20978;-62
2021/08/05 01:48:14;;;;;;;11.00;6.50;;;;;;;17.02;100.00;100430.73;1707491;82;21999;-63
2021/08/05 01:50:42;;;;;;;13.03;6.60;;;;;;;16.96;100.00;100427.66;1706459;82;20993;-63
2021/08/05 01:53:09;;;;;;;11.63;7.07;;;;;;;16.90;100.00;100432.50;1707320;83;21052;-63
2021/08/05 01:55:37;;;;;;;9.17;6.10;;;;;;;16.86;100.00;100438.72;1706975;82;20914;-61
2021/08/05 01:58:04;;;;;;;13.47;7.00;;;;;;;16.89;100.00;100442.72;1705113;83;20974;-62
2021/08/05 02:00:31;;;;;;;12.17;7.20;;;;;;;16.94;100.00;100441.57;1707120;83;21152;-61
2021/08/05 02:02:58;;;;;;;12.57;6.70;;;;;;;16.86;100.00;100441.35;1707391;82;21100;-63
2021/08/05 02:05:45;;;;;;;13.57;7.40;;;;;;;16.86;100.00;100442.67;1715454;81;20993;-62
2021/08/05 02:08:15;;;;;;;10.17;6.80;;;;;;;16.84;100.00;100441.27;1715248;83;21052;-63
2021/08/05 02:10:44;;;;;;;9.97;7.73;;;;;;;16.76;100.00;100437.09;1716135;81;22362;-63
2021/08/05 02:13:17;;;;;;;14.30;7.17;;;;;;;16.69;100.00;100435.81;1715989;81;21028;-62
2021/08/05 02:15:55;;;;;;;10.90;6.43;;;;;;;16.54;100.00;100432.22;1718675;81;20962;-62
2021/08/05 02:18:25;;;;;;;9.57;6.50;;;;;;;16.54;100.00;100432.73;1716104;82;21467;-61
2021/08/05 02:20:51;;;;;;;10.20;6.50;;;;;;;16.46;100.00;100433.82;1719882;81;21025;-61
2021/08/05 02:23:18;;;;;;;9.67;7.40;;;;;;;16.50;100.00;100436.83;1719052;81;21064;-63
2021/08/05 02:25:50;;;;;;;12.27;7.23;;;;;;;16.41;100.00;100432.36;1716838;82;21150;-63
2021/08/05 02:28:18;;;;;;;8.57;6.90;;;;;;;16.44;100.00;100430.62;1717441;81;21480;-61
2021/08/05 02:30:45;;;;;;;9.73;6.90;;;;;;;16.48;100.00;100437.56;1715197;83;21011;-61
2021/08/05 02:33:12;;;;;;;10.87;7.30;;;;;;;16.47;100.00;100449.89;1722200;81;20989;-63
2021/08/05 02:35:43;;;;;;;9.27;6.83;;;;;;;16.49;100.00;100445.75;1716652;82;20941;-62
2021/08/05 02:38:10;;;;;;;8.85;6.15;;;;;;;16.54;100.00;100444.58;1718541;81;21123;-63
2021/08/05 02:40:36;;;;;;;10.17;6.47;;;;;;;16.54;100.00;100447.20;1697354;83;21534;-61
2021/08/05 02:43:05;;;;;;;14.43;9.87;;;;;;;16.65;100.00;100445.17;1716165;82;20976;-63
2021/08/05 02:45:31;;;;;;;10.77;8.50;;;;;;;16.69;100.00;100448.98;1717827;81;21539;-62
2021/08/05 02:47:59;;;;;;;22.23;17.30;;;;;;;16.72;100.00;100448.55;1717396;81;22313;-62
2021/08/05 02:50:28;;;;;;;11.13;7.90;;;;;;;16.88;100.00;100447.70;1719366;81;21194;-62
2021/08/05 02:52:56;;;;;;;9.67;6.30;;;;;;;16.87;100.00;100451.37;1715332;82;22335;-63
2021/08/05 02:55:23;;;;;;;9.67;6.90;;;;;;;16.89;100.00;100451.42;1713513;82;20990;-63
2021/08/05 02:57:54;;;;;;;10.60;6.70;;;;;;;16.92;100.00;100453.63;1719752;81;21059;-63
2021/08/05 03:00:21;;;;;;;9.53;7.17;;;;;;;16.98;100.00;100459.34;1720098;80;20930;-61
2021/08/05 03:02:49;;;;;;;9.80;6.47;;;;;;;17.10;100.00;100464.67;1731218;80;21560;-64
2021/08/05 03:05:17;;;;;;;8.77;6.40;;;;;;;17.18;100.00;100463.05;1735261;80;21007;-63
2021/08/05 03:07:43;;;;;;;9.20;6.13;;;;;;;17.35;100.00;100463.75;1737932;80;20955;-62
2021/08/05 03:10:14;;;;;;;7.23;6.37;;;;;;;17.45;100.00;100466.66;1737602;80;21050;-60
2021/08/05 03:12:43;;;;;;;8.25;6.30;;;;;;;17.62;100.00;100461.59;1739272;80;21493;-62
2021/08/05 03:15:12;;;;;;;8.13;6.07;;;;;;;17.87;100.00;100455.66;1737955;81;21058;-61
2021/08/05 03:17:38;;;;;;;9.17;5.93;;;;;;;18.17;100.00;100456.91;1734005;80;21082;-61
2021/08/05 03:20:06;;;;;;;12.17;6.60;;;;;;;18.46;100.00;100460.48;1736713;81;21044;-61
2021/08/05 03:22:33;;;;;;;9.53;6.73;;;;;;;18.78;100.00;100460.66;1732864;80;20925;-63
2021/08/05 03:24:59;;;;;;;8.57;6.83;;;;;;;19.11;100.00;100457.38;1735801;80;21074;-65
2021/08/05 03:27:26;;;;;;;10.03;6.67;;;;;;;19.76;100.00;100449.61;1735461;81;21127;-65
2021/08/05 03:29:52;;;;;;;7.83;6.07;;;;;;;20.70;100.00;100453.70;1735765;80;21030;-65
2021/08/05 03:32:19;;;;;;;8.47;5.53;;;;;;;21.70;100.00;100448.98;1739821;81;21537;-61
2021/08/05 03:34:45;;;;;;;7.80;5.40;;;;;;;22.68;100.00;100438.54;1739047;80;21062;-63
2021/08/05 03:37:12;;;;;;;7.77;6.00;;;;;;;23.49;100.00;100426.86;1740440;81;21153;-63
2021/08/05 03:39:38;;;;;;;8.33;5.63;;;;;;;24.18;100.00;100413.55;1735991;81;22436;-63
2021/08/05 03:42:05;;;;;;;7.20;5.53;;;;;;;24.91;100.00;100406.37;1737596;81;20940;-64
2021/08/05 03:44:31;;;;;;;7.93;6.60;;;;;;;25.57;100.00;100406.53;1740153;81;20940;-63
2021/08/05 03:46:58;;;;;;;9.23;6.17;;;;;;;26.14;100.00;100403.64;1736609;80;21105;-63
2021/08/05 03:49:27;;;;;;;9.45;6.53;;;;;;;26.68;100.00;100408.41;1738054;81;21014;-64
2021/08/05 03:51:53;;;;;;;8.48;5.33;;;;;;;27.26;100.00;100406.03;1736221;80;21813;-63
2021/08/05 03:54:19;;;;;;;8.70;5.70;;;;;;;27.78;100.00;100398.81;1725923;80;21483;-62
2021/08/05 03:56:47;;;;;;;8.95;6.03;;;;;;;28.30;100.00;100394.91;1737395;81;21573;-62
2021/08/05 03:59:13;;;;;;;7.20;5.83;;;;;;;28.79;100.00;100388.55;1736408;80;21136;-62
2021/08/05 04:01:40;;;;;;;7.75;6.05;;;;;;;29.01;100.00;100388.63;1745542;80;21106;-62
2021/08/05 04:04:06;;;;;;;9.88;5.60;;;;;;;29.11;99.18;100385.48;1751028;81;21127;-62
2021/08/05 04:06:32;;;;;;;8.20;5.70;;;;;;;29.16;95.94;100386.69;1747437;80;20975;-62
2021/08/05 04:08:59;;;;;;;8.10;5.95;;;;;;;29.22;93.79;100387.62;1750927;80;20940;-62
2021/08/05 04:11:25;;;;;;;7.45;5.90;;;;;;;29.29;92.21;100379.94;1741240;80;21393;-62
2021/08/05 04:13:52;;;;;;;6.80;5.10;;;;;;;29.51;86.56;100384.51;1748000;80;21117;-61
2021/08/05 04:16:19;;;;;;;9.90;5.10;;;;;;;29.63;83.69;100379.95;1751016;80;21502;-61
2021/08/05 04:18:47;;;;;;;7.12;4.95;;;;;;;29.85;76.42;100376.95;1753494;81;20963;-62
2021/08/05 04:21:13;;;;;;;7.22;5.12;;;;;;;30.01;72.22;100377.59;1752584;80;21082;-62
2021/08/05 04:23:40;;;;;;;5.53;4.50;;;;;;;30.27;69.87;100383.09;1753845;80;20990;-61
2021/08/05 04:26:08;;;;;;;9.55;4.60;;;;;;;30.65;62.20;100386.59;1754815;80;20936;-61
2021/08/05 04:28:34;;;;;;;6.95;5.35;;;;;;;30.84;60.66;100382.28;1749191;80;21905;-61
2021/08/05 04:31:01;;;;;;;6.12;4.33;;;;;;;31.14;56.69;100384.58;1752904;80;21074;-62
2021/08/05 04:33:27;;;;;;;4.97;4.40;;;;;;;31.37;54.52;100383.87;1750311;80;21015;-62
2021/08/05 04:35:54;;;;;;;7.95;4.85;;;;;;;31.73;53.22;100384.01;1754175;80;21093;-61
2021/08/05 04:38:20;;;;;;;5.30;4.45;;;;;;;32.11;49.84;100385.39;1750683;80;20991;-61
2021/08/05 04:40:47;;;;;;;5.95;4.33;;;;;;;32.41;48.08;100383.52;1749727;80;21847;-62
2021/08/05 04:43:13;;;;;;;5.30;4.05;;;;;;;32.81;45.89;100374.22;1749595;80;20996;-63
2021/08/05 04:45:40;;;;;;;7.75;4.12;;;;;;;33.05;44.20;100379.75;1744718;80;21129;-62
2021/08/05 04:48:07;;;;;;;5.60;4.33;;;;;;;33.22;43.07;100370.69;1754657;80;21434;-61
2021/08/05 04:50:37;;;;;;;6.33;3.52;;;;;;;33.28;41.66;100372.63;1750952;80;21127;-61
2021/08/05 04:53:06;;;;;;;5.12;3.50;;;;;;;33.34;41.50;100368.61;1754022;80;21071;-61
2021/08/05 04:55:35;;;;;;;6.35;3.50;;;;;;;33.43;40.85;100378.75;1748783;80;20923;-61
2021/08/05 04:58:04;;;;;;;4.53;3.72;;;;;;;33.49;39.95;100377.99;1750871;80;21459;-61
2021/08/05 05:00:37;;;;;;;4.58;3.75;;;;;;;33.62;39.02;100379.05;1751014;80;21114;-61
2021/08/05 05:03:04;;;;;;;10.03;3.95;;;;;;;33.71;38.55;100376.23;1748497;80;21494;-60
2021/08/05 05:05:32;;;;;;;5.20;4.20;;;;;;;33.86;38.72;100377.49;1736684;80;21046;-61
2021/08/05 05:08:22;;;;;;;5.58;4.00;;;;;;;34.11;38.04;100375.06;1737212;80;21475;-60
2021/08/05 05:10:51;;;;;;;;;;;;;;;34.46;37.90;100379.20;1751612;80;20936;-61
2021/08/05 05:13:18;;;;;;;7.65;5.97;;;;;;;34.89;36.11;100378.53;1747433;80;20114;-60
2021/08/05 05:15:46;;;;;;;8.18;6.15;;;;;;;35.08;35.55;100377.38;1745248;80;21018;-61
2021/08/05 05:18:15;;;;;;;13.93;10.30;;;;;;;35.44;34.51;100379.67;1741499;80;21154;-60
2021/08/05 05:20:44;;;;;;;12.55;10.28;;;;;;;35.78;33.23;100384.23;1743530;80;21004;-61
2021/08/05 05:23:11;;;;;;;16.17;13.00;;;;;;;36.20;32.13;100380.41;1740550;80;21043;-61
2021/08/05 05:25:38;;;;;;;19.87;16.77;;;;;;;36.32;31.75;100377.36;1746687;80;21097;-61
2021/08/05 05:28:05;;;;;;;20.62;17.62;;;;;;;36.57;30.99;100375.22;1741519;80;21081;-61
2021/08/05 05:30:31;;;;;;;17.67;14.78;;;;;;;36.96;30.43;100371.38;1746802;80;21148;-61
2021/08/05 05:32:58;;;;;;;16.52;13.00;;;;;;;37.54;30.29;100373.22;1746799;80;20994;-62
2021/08/05 05:35:24;;;;;;;16.15;13.60;;;;;;;38.11;29.93;100370.64;1742694;80;21000;-63
2021/08/05 05:37:53;;;;;;;18.25;14.55;;;;;;;38.53;29.04;100369.13;1744502;80;22536;-61
2021/08/05 05:40:20;;;;;;;18.35;16.02;;;;;;;38.93;28.20;100367.08;1737442;80;21530;-61
2021/08/05 05:42:47;;;;;;;19.00;13.62;;;;;;;39.07;28.04;100361.58;1710532;82;21145;-61
2021/08/05 05:45:16;;;;;;;19.92;12.45;;;;;;;39.24;27.72;100365.66;1700766;82;21494;-62
2021/08/05 05:47:43;;;;;;;15.75;11.73;;;;;;;39.47;27.87;100359.44;1695496;83;21035;-61
2021/08/05 05:50:11;;;;;;;16.82;11.90;;;;;;;39.56;27.82;100360.50;1691465;83;21161;-61
2021/08/05 05:52:39;;;;;;;13.22;11.15;;;;;;;39.74;28.03;100364.74;1706492;82;20850;-61
2021/08/05 05:55:07;;;;;;;15.50;11.40;;;;;;;39.82;27.29;100369.89;1683569;83;21206;-61
2021/08/05 05:57:34;;;;;;;14.05;11.25;;;;;;;39.79;27.38;100367.14;1681363;83;21512;-62
2021/08/05 06:00:01;;;;;;;15.32;10.20;;;;;;;39.95;27.13;100362.17;1686600;82;21873;-61
2021/08/05 06:02:29;;;;;;;13.15;10.50;;;;;;;40.03;26.22;100365.14;1686914;83;21149;-61
2021/08/05 06:04:56;;;;;;;12.75;10.32;;;;;;;39.81;26.60;100360.13;1677410;84;21106;-60
2021/08/05 06:07:23;;;;;;;11.75;9.98;;;;;;;39.36;26.85;100352.55;1675869;83;21158;-62
2021/08/05 06:09:50;;;;;;;13.60;9.03;;;;;;;39.04;27.46;100350.84;1674570;83;22559;-63
2021/08/05 06:12:17;;;;;;;13.10;9.98;;;;;;;38.97;27.51;100351.34;1672358;84;21150;-61
2021/08/05 06:14:44;;;;;;;11.68;8.78;;;;;;;39.01;27.86;100352.94;1677699;83;21020;-62
2021/08/05 06:17:10;;;;;;;18.67;10.85;;;;;;;39.05;27.79;100348.89;1666885;83;21111;-62
2021/08/05 06:19:37;;;;;;;10.68;9.58;;;;;;;38.96;27.86;100347.06;1675586;83;21333;-61
2021/08/05 06:22:03;;;;;;;13.08;9.75;;;;;;;38.98;27.80;100344.73;1673595;84;21084;-61
2021/08/05 06:24:30;;;;;;;14.28;9.30;;;;;;;39.10;27.66;100339.81;1732526;80;21616;-61
2021/08/05 06:26:57;;;;;;;9.53;8.28;;;;;;;38.99;27.56;100341.64;1732704;80;21098;-61
2021/08/05 06:29:29;;;;;;;10.25;8.85;;;;;;;38.88;27.04;100338.02;1732936;80;21506;-61
2021/08/05 06:31:52;;;;;;;10.75;8.25;;;;;;;38.83;27.29;100336.42;1727151;81;21146;-61
2021/08/05 06:34:19;;;;;;;12.33;9.00;;;;;;;38.94;27.87;100343.33;1733974;80;20971;-62
2021/08/05 06:36:45;;;;;;;11.48;8.30;;;;;;;39.05;27.40;100340.72;1729887;80;21480;-60
2021/08/05 06:39:13;;;;;;;14.43;9.18;;;;;;;39.17;27.29;100336.34;1727949;80;21027;-60
2021/08/05 06:41:40;;;;;;;10.72;8.30;;;;;;;39.46;26.66;100332.55;1732621;80;21056;-61
2021/08/05 06:44:06;;;;;;;13.00;7.75;;;;;;;39.57;26.85;100336.92;1728604;80;21142;-61
2021/08/05 06:46:33;;;;;;;10.40;6.95;;;;;;;39.60;26.07;100328.58;1699986;82;21007;-61
2021/08/05 06:48:59;;;;;;;8.33;5.15;;;;;;;39.63;26.06;100327.83;1730997;81;21509;-60
2021/08/05 06:51:26;;;;;;;6.55;5.80;;;;;;;39.78;25.33;100321.89;1727964;80;21047;-61
2021/08/05 06:53:52;;;;;;;7.37;6.45;;;;;;;39.75;25.01;100326.17;1732018;80;21003;-61
2021/08/05 06:56:19;;;;;;;7.47;6.45;;;;;;;39.78;25.19;100327.34;1730986;80;21113;-62
2021/08/05 06:58:45;;;;;;;10.85;6.60;;;;;;;40.05;25.27;100317.00;1729798;81;21392;-60
2021/08/05 07:01:12;;;;;;;8.33;5.72;;;;;;;40.30;25.60;100316.55;1726003;80;22164;-60
2021/08/05 07:03:38;;;;;;;8.03;6.08;;;;;;;40.63;24.55;100307.14;1733904;81;20940;-62
2021/08/05 07:06:06;;;;;;;8.05;6.12;;;;;;;40.92;24.34;100308.00;1727576;80;21112;-61
2021/08/05 07:08:35;;;;;;;8.83;6.50;;;;;;;40.90;24.74;100304.27;1733439;81;21070;-62
2021/08/05 07:11:02;;;;;;;8.13;6.47;;;;;;;40.80;24.24;100300.36;1726798;80;21542;-64
2021/08/05 07:13:28;;;;;;;14.58;5.05;;;;;;;40.30;24.30;100307.58;1737508;80;21023;-62
2021/08/05 07:15:55;;;;;;;6.75;5.05;;;;;;;40.01;24.58;100303.92;1735044;80;21057;-64
2021/08/05 07:18:22;;;;;;;5.70;4.30;;;;;;;40.35;24.41;100301.17;1730601;80;21012;-64
2021/08/05 07:20:48;;;;;;;5.75;4.42;;;;;;;40.64;23.92;100297.18;1727010;80;22056;-64
2021/08/05 07:23:15;;;;;;;5.87;3.92;;;;;;;40.67;23.85;100295.64;1728762;80;21102;-65
2021/08/05 07:25:45;;;;;;;5.22;3.95;;;;;;;40.64;23.71;100293.08;1732398;80;21118;-63
2021/08/05 07:28:11;;;;;;;5.07;3.30;;;;;;;40.38;23.38;100294.92;1728249;80;20999;-65
2021/08/05 07:30:39;;;;;;;6.22;3.80;;;;;;;40.16;23.30;100293.85;1736289;81;21004;-64
2021/08/05 07:33:05;;;;;;;4.47;2.70;;;;;;;40.31;23.23;100289.45;1732841;80;21212;-63
2021/08/05 07:35:32;;;;;;;3.15;1.85;;;;;;;40.49;22.46;100287.35;1725201;80;20968;-63
2021/08/05 08:35:58;;;;;;;2.08;1.47;;;;;;;39.50;19.23;100238.66;1838368;76;22225;-63
2021/08/05 08:38:25;;;;;;;2.52;1.50;;;;;;;39.75;19.19;100238.85;1778350;79;21056;-63
2021/08/05 08:40:54;;;;;;;2.02;1.50;;;;;;;39.89;18.52;100238.94;1771552;79;21052;-63
2021/08/05 08:43:20;;;;;;;2.10;1.57;;;;;;;39.83;19.81;100243.77;1784195;80;22252;-62
2021/08/05 08:45:51;;;;;;;2.08;1.62;;;;;;;39.79;18.91;100238.29;1783129;80;20904;-62
2021/08/05 08:48:17;;;;;;;2.60;1.77;;;;;;;39.55;18.81;100235.59;1747231;81;20935;-63
2021/08/05 08:50:43;;;;;;;3.33;1.45;;;;;;;39.43;19.19;100235.11;1730890;81;21065;-63
2021/08/05 08:53:11;;;;;;;3.80;1.67;;;;;;;39.60;19.05;100239.32;1732953;81;21114;-62
2021/08/05 08:55:45;;;;;;;5.22;1.60;;;;;;;39.71;18.86;100235.33;1742556;81;20966;-61
2021/08/05 08:58:12;;;;;;;3.17;1.50;;;;;;;39.97;18.59;100232.11;1782116;80;20971;-62
2021/08/05 09:00:38;;;;;;;2.27;1.50;;;;;;;39.96;19.06;100230.56;1760280;81;21006;-63
2021/08/05 09:03:06;;;;;;;3.27;1.70;;;;;;;39.77;19.15;100230.27;1753477;81;21062;-64
2021/08/05 09:05:32;;;;;;;2.37;1.50;;;;;;;39.52;19.40;100232.84;1754928;81;21144;-64
2021/08/05 09:08:01;;;;;;;4.28;1.85;;;;;;;38.98;19.40;100234.34;1753633;81;21002;-65
2021/08/05 09:10:28;;;;;;;2.37;1.50;;;;;;;38.74;19.95;100228.27;1784681;79;20959;-61
2021/08/05 09:12:56;;;;;;;5.00;1.65;;;;;;;39.02;19.76;100229.70;1771008;79;23059;-62
2021/08/05 09:15:41;;;;;;;2.10;1.12;;;;;;;39.28;19.18;100228.18;1781599;79;21089;-63
2021/08/05 09:18:35;;;;;;;2.42;1.60;;;;;;;39.51;19.20;100224.44;1753453;81;21516;-63
2021/08/05 09:21:15;;;;;;;2.58;1.62;;;;;;;39.38;19.37;100223.98;1781229;79;21065;-64
2021/08/05 09:23:54;;;;;;;2.08;1.50;;;;;;;39.74;19.09;100223.66;1786476;78;20990;-64
2021/08/05 09:26:28;;;;;;;1.95;1.60;;;;;;;40.21;18.39;100216.45;1751724;81;21459;-64
2021/08/05 09:29:09;;;;;;;2.62;1.67;;;;;;;39.89;18.20;100214.92;1781187;79;21576;-65
2021/08/05 09:31:41;;;;;;;3.50;1.92;;;;;;;39.35;19.16;100209.73;1759086;81;22377;-62
2021/08/05 09:34:11;;;;;;;2.30;1.22;;;;;;;39.03;19.00;100215.71;1747022;80;21017;-64
2021/08/05 09:36:39;;;;;;;;;;;;;;;38.78;19.12;100205.91;1733822;82;21478;-63
2021/08/05 09:39:24;;;;;;;3.05;1.45;;;;;;;38.69;20.40;100208.95;1744669;82;20210;-61
2021/08/05 09:42:08;;;;;;;2.47;1.37;;;;;;;38.82;19.65;100212.80;1741345;81;21630;-63
2021/08/05 09:44:44;;;;;;;3.22;1.70;;;;;;;38.65;20.04;100204.64;1732167;82;21068;-62
2021/08/05 09:47:20;;;;;;;3.70;2.40;;;;;;;38.50;20.00;100198.84;1728717;82;21091;-63
2021/08/05 09:49:55;;;;;;;6.10;1.82;;;;;;;38.38;20.99;100202.04;1736163;82;20944;-63
2021/08/05 09:52:32;;;;;;;2.85;1.67;;;;;;;38.20;20.79;100195.00;1732547;82;21059;-64
2021/08/05 09:55:07;;;;;;;5.15;2.10;;;;;;;37.90;20.47;100188.22;1739392;82;21126;-63
2021/08/05 09:57:37;;;;;;;3.33;2.10;;;;;;;37.55;20.83;100186.37;1734033;82;22041;-63
2021/08/05 10:00:09;;;;;;;4.65;2.05;;;;;;;37.23;20.85;100189.36;1734757;82;28106;-64
2021/08/05 10:02:50;;;;;;;2.65;2.12;;;;;;;37.05;21.27;100182.28;1719695;82;21034;-64
2021/08/05 10:05:22;;;;;;;2.72;1.98;;;;;;;36.99;21.97;100181.03;1754346;81;20944;-63
2021/08/05 10:07:53;;;;;;;2.72;2.10;;;;;;;37.29;20.94;100187.91;1726625;81;21018;-63
2021/08/05 10:10:22;;;;;;;3.95;2.40;;;;;;;37.64;21.03;100186.30;1736034;81;21156;-62
2021/08/05 10:12:58;;;;;;;4.35;2.20;;;;;;;37.95;21.26;100183.03;1735215;81;22248;-62
2021/08/05 10:15:26;;;;;;;2.92;2.05;;;;;;;38.31;20.26;100176.06;1737178;81;20989;-62
2021/08/05 10:17:59;;;;;;;6.10;2.33;;;;;;;38.68;20.19;100173.90;1735776;81;21064;-62
2021/08/05 10:20:27;;;;;;;3.42;2.42;;;;;;;38.62;20.12;100172.11;1756065;81;20985;-63
2021/08/05 10:22:56;;;;;;;5.62;2.10;;;;;;;38.55;20.39;100165.23;1721622;82;21131;-63
2021/08/05 10:25:25;;;;;;;3.98;2.15;;;;;;;38.73;20.25;100164.04;1723238;82;21070;-62
2021/08/05 10:27:54;;;;;;;5.28;2.30;;;;;;;39.07;19.79;100165.31;1731324;82;21550;-62
2021/08/05 10:30:21;;;;;;;5.12;2.50;;;;;;;39.41;18.94;100159.91;1734086;82;21491;-65
2021/08/05 10:32:48;;;;;;;3.12;1.90;;;;;;;39.54;19.09;100159.58;1732097;82;21140;-62
2021/08/05 10:35:16;;;;;;;8.85;2.20;;;;;;;39.53;19.35;100154.70;1713359;82;22033;-64
2021/08/05 10:37:43;;;;;;;4.22;2.25;;;;;;;39.64;18.66;100152.81;1780824;80;20987;-62
2021/08/05 10:40:11;;;;;;;4.12;2.12;;;;;;;39.81;19.07;100150.56;1782249;79;21118;-63
2021/08/05 10:42:41;;;;;;;4.25;2.10;;;;;;;40.11;18.51;100142.85;1765937;80;21706;-62
2021/08/05 10:45:09;;;;;;;;;;;;;;;40.41;18.59;100140.41;1779169;80;21038;-61
2021/08/05 10:47:35;;;;;;;2.92;1.67;;;;;;;40.60;18.13;100137.91;1782513;80;21074;-62
2021/08/05 10:50:06;;;;;;;3.12;1.90;;;;;;;40.70;17.67;100133.04;1763608;80;21624;-63
2021/08/05 10:52:41;;;;;;;17.02;4.17;;;;;;;40.77;17.79;100129.53;1763421;80;21042;-63
2021/08/05 10:55:19;;;;;;;6.17;2.50;;;;;;;40.75;17.85;100132.64;1775683;80;20946;-62
2021/08/05 10:58:10;;;;;;;5.83;2.27;;;;;;;40.72;17.65;100132.64;1777121;80;25862;-65
2021/08/05 11:00:53;;;;;;;5.70;2.55;;;;;;;40.62;18.14;100127.98;1771268;80;21788;-62
2021/08/05 11:03:37;;;;;;;4.10;2.05;;;;;;;40.62;18.36;100123.29;1778617;79;21565;-62
2021/08/05 11:06:06;;;;;;;3.62;2.17;;;;;;;40.42;18.38;100127.52;1771621;80;20928;-62
2021/08/05 11:08:34;;;;;;;3.60;2.00;;;;;;;40.17;18.23;100117.36;1781390;79;21596;-62
2021/08/05 11:11:25;;;;;;;3.60;2.10;;;;;;;39.95;18.58;100126.64;1780367;80;21122;-62
2021/08/05 11:14:06;;;;;;;2.98;2.22;;;;;;;39.60;18.54;100126.09;1781907;79;20995;-62
2021/08/05 11:17:01;;;;;;;3.50;2.42;;;;;;;39.50;18.55;100117.86;1781312;79;20963;-62
2021/08/05 11:19:30;;;;;;;3.90;2.27;;;;;;;39.36;18.27;100119.38;1783231;79;20928;-61
2021/08/05 11:21:58;;;;;;;4.25;2.15;;;;;;;39.30;18.42;100114.66;1770644;79;25085;-61
2021/08/05 11:24:52;;;;;;;2.87;2.02;;;;;;;39.04;18.48;100111.55;1730815;81;21101;-61
2021/08/05 11:27:20;;;;;;;2.77;1.98;;;;;;;39.02;18.79;100109.77;1780523;80;21494;-61
2021/08/05 11:29:51;;;;;;;4.15;2.10;;;;;;;39.16;19.18;100107.13;1782511;79;20963;-61
2021/08/05 11:32:29;;;;;;;3.52;2.33;;;;;;;38.99;19.08;100108.60;1782992;80;20987;-61
2021/08/05 11:34:58;;;;;;;4.47;1.77;;;;;;;38.77;19.74;100105.49;1775064;79;21830;-61
2021/08/05 11:37:26;;;;;;;4.85;2.10;;;;;;;38.41;19.64;100104.59;1796513;79;21107;-61
2021/08/05 11:39:59;;;;;;;3.37;2.42;;;;;;;38.07;20.27;100098.41;1784499;78;22673;-62
2021/08/05 11:42:29;;;;;;;5.42;2.15;;;;;;;37.67;20.07;100097.17;1801397;79;20984;-61
2021/08/05 11:45:03;;;;;;;4.33;2.35;;;;;;;37.16;20.97;100088.69;1802501;78;21028;-63
2021/08/05 11:47:41;;;;;;;4.33;2.10;;;;;;;36.96;21.24;100087.44;1801022;79;22387;-62
2021/08/05 11:50:16;;;;;;;4.83;2.08;;;;;;;37.00;21.16;100086.91;1802443;78;21477;-62
2021/08/05 11:52:49;;;;;;;4.75;2.30;;;;;;;37.44;21.26;100085.62;1804948;79;21807;-61
2021/08/05 11:55:22;;;;;;;4.30;2.33;;;;;;;38.03;20.90;100080.48;1789280;78;21069;-62
2021/08/05 11:57:56;;;;;;;4.03;2.30;;;;;;;38.61;20.37;100074.44;1802823;78;21120;-62
2021/08/05 12:00:28;;;;;;;4.67;3.12;;;;;;;39.02;19.47;100077.06;1794134;79;20999;-62
2021/08/05 12:03:11;;;;;;;4.78;2.33;;;;;;;38.80;19.27;100073.44;1802708;78;21349;-62
2021/08/05 12:05:48;;;;;;;3.50;2.40;;;;;;;38.15;20.39;100074.77;1808338;78;21510;-63
2021/08/05 12:08:19;;;;;;;4.08;2.10;;;;;;;37.71;20.22;100068.06;1786969;79;21033;-62
2021/08/05 12:10:48;;;;;;;4.67;2.50;;;;;;;37.52;20.58;100062.80;1806647;78;20928;-62
2021/08/05 12:13:20;;;;;;;3.37;2.00;;;;;;;37.65;20.60;100061.96;1796125;78;21069;-62
2021/08/05 12:15:51;;;;;;;4.00;2.58;;;;;;;37.71;20.22;100052.33;1805451;78;20885;-61
2021/08/05 12:18:22;;;;;;;4.22;2.17;;;;;;;37.83;21.10;100056.15;1794852;78;22301;-61
2021/08/05 12:21:04;;;;;;;3.90;2.10;;;;;;;38.03;20.22;100047.82;1801572;78;21014;-62
2021/08/05 12:23:39;;;;;;;4.10;1.85;;;;;;;38.23;20.32;100049.20;1803890;78;21540;-61
2021/08/05 12:26:07;;;;;;;2.60;2.10;;;;;;;38.35;20.51;100048.94;1800980;78;21043;-62
2021/08/05 12:28:37;;;;;;;2.98;2.12;;;;;;;38.40;20.34;100044.49;1797349;79;21575;-62